createdAt,value
2023-04-26T00:01:19.527Z,101492.78
2023-04-26T00:03:46.550Z,101492.44
2023-04-26T00:06:14.721Z,101497.25
2023-04-26T00:08:42.299Z,101495.28
2023-04-26T00:11:08.890Z,101499.88
2023-04-26T00:13:35.353Z,101497.00
2023-04-26T00:16:01.834Z,101495.16
2023-04-26T00:18:28.334Z,101503.06
2023-04-26T00:20:54.809Z,101497.56
2023-04-26T00:23:21.259Z,101494.81
2023-04-26T00:25:47.699Z,101490.34
2023-04-26T00:28:14.218Z,101485.69
2023-04-26T00:30:47.329Z,101481.44
2023-04-26T00:33:13.854Z,101485.00
2023-04-26T00:35:40.640Z,101479.97
2023-04-26T00:38:07.747Z,101483.53
2023-04-26T00:40:35.563Z,101481.00
2023-04-26T00:43:03.348Z,101476.22
2023-04-26T00:45:30.432Z,101476.41
2023-04-26T00:47:57.212Z,101476.19
2023-04-26T00:50:24.406Z,101471.03
2023-04-26T00:52:51.538Z,101477.44
2023-04-26T00:55:19.427Z,101469.44
2023-04-26T00:57:46.245Z,101471.03
2023-04-26T01:00:13.582Z,101471.25
2023-04-26T01:02:41.639Z,101474.78
2023-04-26T01:05:09.381Z,101464.06
2023-04-26T01:07:38.946Z,101469.72
2023-04-26T01:10:06.176Z,101475.44
2023-04-26T01:12:33.190Z,101468.56
2023-04-26T01:15:00.682Z,101475.19
2023-04-26T01:17:27.180Z,101475.88
2023-04-26T01:19:53.754Z,101473.13
2023-04-26T01:22:20.281Z,101473.13
2023-04-26T01:24:50.436Z,101477.47
2023-04-26T01:27:17.476Z,101481.84
2023-04-26T01:29:44.029Z,101482.50
2023-04-26T01:32:11.983Z,101492.31
2023-04-26T01:34:38.601Z,101483.63
2023-04-26T01:37:05.094Z,101484.75
2023-04-26T01:39:31.610Z,101492.88
2023-04-26T01:42:00.728Z,101487.94
2023-04-26T01:44:27.217Z,101487.91
2023-04-26T01:46:53.648Z,101489.22
2023-04-26T01:49:20.279Z,101473.22
2023-04-26T01:51:46.846Z,101481.88
2023-04-26T01:54:13.312Z,101486.56
2023-04-26T01:56:39.799Z,101481.22
2023-04-26T01:59:06.328Z,101480.75
2023-04-26T02:01:32.964Z,101486.22
2023-04-26T02:03:59.464Z,101496.38
2023-04-26T02:06:26.570Z,101495.13
2023-04-26T02:08:54.393Z,101490.84
2023-04-26T02:11:21.274Z,101496.34
2023-04-26T02:13:47.844Z,101493.59
2023-04-26T02:16:16.444Z,101494.84
2023-04-26T02:18:42.971Z,101481.94
2023-04-26T02:21:11.848Z,101492.22
2023-04-26T02:23:38.628Z,101491.44
2023-04-26T02:26:05.296Z,101488.56
2023-04-26T02:28:32.097Z,101494.84
2023-04-26T02:30:58.735Z,101497.59
2023-04-26T02:33:25.554Z,101491.38
2023-04-26T02:35:51.990Z,101499.53
2023-04-26T02:38:18.498Z,101488.66
2023-04-26T02:40:45.334Z,101488.50
2023-04-26T02:43:11.896Z,101493.78
2023-04-26T02:45:44.406Z,101483.28
2023-04-26T02:48:10.898Z,101483.94
2023-04-26T02:50:37.353Z,101475.34
2023-04-26T02:53:04.317Z,101481.53
2023-04-26T02:55:31.050Z,101474.66
2023-04-26T02:57:57.542Z,101475.25
2023-04-26T03:00:24.877Z,101477.66
2023-04-26T03:02:52.126Z,101473.78
2023-04-26T03:05:20.015Z,101476.78
2023-04-26T03:07:46.532Z,101477.31
2023-04-26T03:10:12.998Z,101478.66
2023-04-26T03:12:39.526Z,101479.47
2023-04-26T03:15:06.405Z,101478.16
2023-04-26T03:17:32.889Z,101471.72
2023-04-26T03:20:01.829Z,101481.66
2023-04-26T03:22:29.062Z,101477.81
2023-04-26T03:24:55.733Z,101478.25
2023-04-26T03:27:22.181Z,101478.25
2023-04-26T03:29:48.621Z,101475.06
2023-04-26T03:32:15.172Z,101473.00
2023-04-26T03:34:41.750Z,101477.31
2023-04-26T03:37:08.284Z,101475.50
2023-04-26T03:39:34.800Z,101476.16
2023-04-26T03:42:01.859Z,101469.44
2023-04-26T03:44:29.889Z,101467.81
2023-04-26T03:46:57.754Z,101483.09
2023-04-26T03:49:24.236Z,101467.03
2023-04-26T03:51:50.778Z,101461.69
2023-04-26T03:54:17.226Z,101463.59
2023-04-26T03:56:43.664Z,101466.81
2023-04-26T03:59:10.355Z,101462.63
2023-04-26T04:01:37.107Z,101463.44
2023-04-26T04:04:03.961Z,101469.03
2023-04-26T04:06:31.045Z,101470.50
2023-04-26T04:08:57.515Z,101471.97
2023-04-26T04:11:24.194Z,101461.69
2023-04-26T04:13:50.763Z,101470.38
2023-04-26T04:16:17.348Z,101465.84
2023-04-26T04:18:43.916Z,101470.50
2023-04-26T04:21:10.402Z,101462.63
2023-04-26T04:23:36.835Z,101471.34
2023-04-26T04:26:03.313Z,101478.34
2023-04-26T04:28:29.892Z,101474.31
2023-04-26T04:30:57.126Z,101477.69
2023-04-26T04:33:25.681Z,101475.88
2023-04-26T04:35:52.461Z,101473.44
2023-04-26T04:38:18.932Z,101471.03
2023-04-26T04:40:48.096Z,101475.88
2023-04-26T04:43:15.589Z,101483.28
2023-04-26T04:45:42.359Z,101488.91
2023-04-26T04:48:09.042Z,101485.47
2023-04-26T04:50:35.915Z,101487.22
2023-04-26T04:53:02.803Z,101483.50
2023-04-26T04:55:29.472Z,101495.53
2023-04-26T04:57:56.161Z,101487.00
2023-04-26T05:00:22.716Z,101485.88
2023-04-26T05:02:49.369Z,101494.06
2023-04-26T05:05:16.051Z,101494.94
2023-04-26T05:07:42.512Z,101494.00
2023-04-26T05:10:09.319Z,101503.47
2023-04-26T05:12:36.551Z,101508.00
2023-04-26T05:15:03.964Z,101507.31
2023-04-26T05:17:32.411Z,101506.16
2023-04-26T05:19:59.180Z,101517.19
2023-04-26T05:22:27.019Z,101520.19
2023-04-26T05:24:53.431Z,101522.75
2023-04-26T05:27:19.974Z,101520.41
2023-04-26T05:29:46.430Z,101523.56
2023-04-26T05:32:13.168Z,101519.16
2023-04-26T05:34:39.674Z,101523.91
2023-04-26T05:37:06.779Z,101528.38
2023-04-26T05:39:33.214Z,101534.41
2023-04-26T05:41:59.656Z,101519.22
2023-04-26T05:44:26.175Z,101522.69
2023-04-26T05:46:52.680Z,101523.13
2023-04-26T05:49:19.131Z,101529.78
2023-04-26T05:51:45.581Z,101526.97
2023-04-26T05:54:12.094Z,101532.69
2023-04-26T05:56:38.507Z,101538.44
2023-04-26T05:59:05.040Z,101542.03
2023-04-26T06:01:31.670Z,101549.09
2023-04-26T06:04:00.862Z,101536.88
2023-04-26T06:06:28.558Z,101546.59
2023-04-26T06:08:55.475Z,101547.31
2023-04-26T06:11:22.319Z,101545.03
2023-04-26T06:13:48.828Z,101554.66
2023-04-26T06:16:15.991Z,101541.63
2023-04-26T06:18:42.917Z,101553.63
2023-04-26T06:21:09.419Z,101559.13
2023-04-26T06:23:35.895Z,101554.91
2023-04-26T06:26:02.398Z,101553.75
2023-04-26T06:28:28.820Z,101560.16
2023-04-26T06:30:55.351Z,101552.81
2023-04-26T06:33:21.896Z,101561.19
2023-04-26T06:35:48.347Z,101558.78
2023-04-26T06:38:14.806Z,101565.81
2023-04-26T06:40:41.702Z,101562.50
2023-04-26T06:43:08.185Z,101562.78
2023-04-26T06:45:34.713Z,101558.16
2023-04-26T06:48:02.015Z,101567.00
2023-04-26T06:50:28.544Z,101571.38
2023-04-26T06:52:55.176Z,101573.03
2023-04-26T06:55:21.896Z,101569.19
2023-04-26T06:57:50.559Z,101571.44
2023-04-26T07:00:18.221Z,101559.72
2023-04-26T07:02:44.966Z,101556.88
2023-04-26T07:05:11.735Z,101552.88
2023-04-26T07:07:38.219Z,101555.63
2023-04-26T07:10:05.110Z,101559.16
2023-04-26T07:12:31.780Z,101544.19
2023-04-26T07:14:58.257Z,101556.03
2023-04-26T07:17:24.703Z,101552.63
2023-04-26T07:19:51.232Z,101551.00
2023-04-26T07:22:18.012Z,101545.03
2023-04-26T07:24:44.455Z,101549.78
2023-04-26T07:27:11.213Z,101555.44
2023-04-26T07:29:38.922Z,101555.00
2023-04-26T07:32:05.658Z,101558.69
2023-04-26T07:34:32.472Z,101551.63
2023-04-26T07:36:59.035Z,101554.34
2023-04-26T07:39:25.659Z,101549.38
2023-04-26T07:41:52.085Z,101551.34
2023-04-26T07:44:18.617Z,101553.25
2023-04-26T07:46:45.158Z,101555.16
2023-04-26T07:49:11.588Z,101551.09
2023-04-26T07:51:38.101Z,101558.03
2023-04-26T07:54:04.685Z,101557.22
2023-04-26T07:56:31.206Z,101552.06
2023-04-26T07:58:57.690Z,101559.50
2023-04-26T08:01:24.137Z,101563.34
2023-04-26T08:03:50.971Z,101556.25
2023-04-26T08:06:17.874Z,101549.13
2023-04-26T08:08:49.132Z,101554.66
2023-04-26T08:11:15.904Z,101554.00
2023-04-26T08:13:44.027Z,101556.41
2023-04-26T08:16:10.785Z,101553.75
2023-04-26T08:18:37.282Z,101551.41
2023-04-26T08:21:04.124Z,101552.91
2023-04-26T08:23:37.954Z,101547.13
2023-04-26T08:26:04.698Z,101545.31
2023-04-26T08:28:31.112Z,101556.94
2023-04-26T08:30:58.298Z,101536.81
2023-04-26T08:33:25.781Z,101542.78
2023-04-26T08:35:52.478Z,101554.41
2023-04-26T08:38:19.032Z,101554.16
2023-04-26T08:40:46.854Z,101563.03
2023-04-26T08:43:15.371Z,101553.56
2023-04-26T08:45:45.768Z,101552.63
2023-04-26T08:48:18.407Z,101553.84
2023-04-26T08:50:48.458Z,101558.41
2023-04-26T08:53:17.818Z,101551.56
2023-04-26T08:55:49.465Z,101547.44
2023-04-26T08:58:17.616Z,101556.41
2023-04-26T09:00:45.978Z,101562.50
2023-04-26T09:03:12.729Z,101557.97
2023-04-26T09:05:44.294Z,101557.78
2023-04-26T09:08:16.231Z,101559.38
2023-04-26T09:10:42.931Z,101552.28
2023-04-26T09:13:09.735Z,101553.41
2023-04-26T09:15:36.425Z,101553.78
2023-04-26T09:18:20.568Z,101554.59
2023-04-26T09:21:02.451Z,101567.97
2023-04-26T09:23:28.981Z,101557.22
2023-04-26T09:25:55.582Z,101559.69
2023-04-26T09:28:23.391Z,101548.91
2023-04-26T09:30:50.546Z,101554.91
2023-04-26T09:33:17.075Z,101564.72
2023-04-26T09:35:44.496Z,101556.63
2023-04-26T09:38:14.042Z,101556.28
2023-04-26T09:40:44.050Z,101557.91
2023-04-26T09:43:12.673Z,101554.78
2023-04-26T09:45:45.783Z,101558.38
2023-04-26T09:48:14.413Z,101543.69
2023-04-26T09:50:41.093Z,101556.44
2023-04-26T09:53:07.977Z,101556.34
2023-04-26T09:55:35.867Z,101547.97
2023-04-26T09:58:10.294Z,101542.78
2023-04-26T10:00:39.379Z,101546.69
2023-04-26T10:03:08.795Z,101542.88
2023-04-26T10:05:36.726Z,101538.63
2023-04-26T10:08:03.925Z,101532.94
2023-04-26T10:10:31.807Z,101535.50
2023-04-26T10:12:58.458Z,101534.06
2023-04-26T10:15:26.047Z,101529.34
2023-04-26T10:17:52.562Z,101534.22
2023-04-26T10:20:21.916Z,101545.34
2023-04-26T10:23:01.322Z,101536.16
2023-04-26T10:25:38.210Z,101540.78
2023-04-26T10:28:05.722Z,101529.66
2023-04-26T10:30:32.791Z,101533.63
2023-04-26T10:32:59.203Z,101528.97
2023-04-26T10:35:30.897Z,101529.47
2023-04-26T10:38:09.500Z,101525.75
2023-04-26T10:40:40.270Z,101524.03
2023-04-26T10:43:14.667Z,101527.19
2023-04-26T10:45:45.386Z,101518.91
2023-04-26T10:48:17.310Z,101521.03
2023-04-26T10:51:02.337Z,101520.00
2023-04-26T10:53:53.081Z,101525.25
2023-04-26T10:56:25.746Z,101519.59
2023-04-26T10:59:36.181Z,101525.09
2023-04-26T11:02:10.593Z,101514.16
2023-04-26T11:04:53.034Z,101521.31
2023-04-26T11:07:38.951Z,101510.28
2023-04-26T11:10:12.430Z,101504.38
2023-04-26T11:12:42.096Z,101503.25
2023-04-26T11:15:08.975Z,101512.78
2023-04-26T11:17:38.491Z,101505.47
2023-04-26T11:20:10.037Z,101497.63
2023-04-26T11:22:40.480Z,101502.50
2023-04-26T11:25:07.324Z,101502.88
2023-04-26T11:27:33.800Z,101508.38
2023-04-26T11:30:04.735Z,101502.38
2023-04-26T11:32:31.301Z,101509.19
2023-04-26T11:35:00.857Z,101500.50
2023-04-26T11:37:27.344Z,101500.13
2023-04-26T11:39:54.017Z,101495.75
2023-04-26T11:42:25.343Z,101485.09
2023-04-26T11:44:52.442Z,101486.63
2023-04-26T11:47:20.428Z,101490.66
2023-04-26T11:49:47.198Z,101489.84
2023-04-26T11:52:14.130Z,101488.69
2023-04-26T11:54:40.751Z,101493.00
2023-04-26T11:57:18.338Z,101485.09
2023-04-26T11:59:45.785Z,101487.09
2023-04-26T12:02:12.614Z,101484.69
2023-04-26T12:04:41.271Z,101496.63
2023-04-26T12:07:08.523Z,101500.59
2023-04-26T12:09:35.302Z,101499.00
2023-04-26T12:12:06.324Z,101497.81
2023-04-26T12:14:37.463Z,101493.84
2023-04-26T12:17:06.191Z,101489.47
2023-04-26T12:19:40.848Z,101499.38
2023-04-26T12:22:08.545Z,101500.97
2023-04-26T12:24:38.577Z,101506.56
2023-04-26T12:27:06.914Z,101501.38
2023-04-26T12:29:34.312Z,101497.78
2023-04-26T12:32:01.559Z,101513.66
2023-04-26T12:34:28.118Z,101497.41
2023-04-26T12:36:54.828Z,101509.31
2023-04-26T12:39:21.330Z,101498.19
2023-04-26T12:41:47.795Z,101504.56
2023-04-26T12:44:14.787Z,101499.41
2023-04-26T12:46:41.509Z,101501.00
2023-04-26T12:49:08.087Z,101498.59
2023-04-26T12:51:34.633Z,101503.75
2023-04-26T12:54:01.136Z,101485.47
2023-04-26T12:56:29.658Z,101493.78
2023-04-26T12:58:56.174Z,101496.94
2023-04-26T13:01:22.806Z,101495.31
2023-04-26T13:03:49.722Z,101491.72
2023-04-26T13:06:16.716Z,101497.97
2023-04-26T13:08:43.273Z,101487.56
2023-04-26T13:11:09.710Z,101493.13
2023-04-26T13:13:43.754Z,101494.72
2023-04-26T13:16:12.613Z,101489.56
2023-04-26T13:18:39.982Z,101490.81
2023-04-26T13:21:06.657Z,101494.03
2023-04-26T13:23:33.141Z,101490.47
2023-04-26T13:25:59.576Z,101496.88
2023-04-26T13:28:26.005Z,101496.06
2023-04-26T13:30:52.786Z,101489.31
2023-04-26T13:33:21.236Z,101501.63
2023-04-26T13:35:47.980Z,101493.72
2023-04-26T13:38:14.602Z,101496.16
2023-04-26T13:40:41.313Z,101488.22
2023-04-26T13:43:07.769Z,101496.56
2023-04-26T13:45:36.710Z,101492.22
2023-04-26T13:48:03.510Z,101494.22
2023-04-26T13:50:30.060Z,101488.63
2023-04-26T13:52:56.680Z,101498.19
2023-04-26T13:55:23.402Z,101486.69
2023-04-26T13:57:49.885Z,101490.66
2023-04-26T14:00:16.934Z,101488.91
2023-04-26T14:02:43.628Z,101490.34
2023-04-26T14:05:10.481Z,101485.88
2023-04-26T14:07:37.173Z,101493.22
2023-04-26T14:10:04.222Z,101487.72
2023-04-26T14:12:31.016Z,101489.41
2023-04-26T14:14:57.563Z,101489.38
2023-04-26T14:17:24.932Z,101499.84
2023-04-26T14:19:54.089Z,101489.81
2023-04-26T14:22:21.572Z,101482.63
2023-04-26T14:24:48.077Z,101481.97
2023-04-26T14:27:14.559Z,101487.59
2023-04-26T14:29:41.039Z,101492.44
2023-04-26T14:32:07.822Z,101491.34
2023-04-26T14:34:38.993Z,101494.94
2023-04-26T14:37:06.728Z,101489.47
2023-04-26T14:39:33.743Z,101491.13
2023-04-26T14:42:00.621Z,101490.38
2023-04-26T14:44:27.529Z,101495.25
2023-04-26T14:46:54.000Z,101491.28
2023-04-26T14:49:20.673Z,101499.66
2023-04-26T14:51:47.154Z,101492.13
2023-04-26T14:54:13.627Z,101487.78
2023-04-26T14:56:40.478Z,101481.44
2023-04-26T14:59:08.091Z,101489.78
2023-04-26T15:01:34.711Z,101483.47
2023-04-26T15:04:01.716Z,101482.66
2023-04-26T15:06:28.772Z,101479.81
2023-04-26T15:08:55.244Z,101467.84
2023-04-26T15:11:21.734Z,101477.75
2023-04-26T15:13:48.261Z,101476.56
2023-04-26T15:16:14.895Z,101470.50
2023-04-26T15:18:41.402Z,101471.28
2023-04-26T15:21:08.281Z,101469.78
2023-04-26T15:23:35.010Z,101464.25
2023-04-26T15:26:04.410Z,101469.41
2023-04-26T15:28:31.077Z,101473.44
2023-04-26T15:31:09.330Z,101461.97
2023-04-26T15:33:36.363Z,101462.38
2023-04-26T15:36:03.181Z,101463.56
2023-04-26T15:38:29.651Z,101465.16
2023-04-26T15:40:56.168Z,101460.81
2023-04-26T15:43:22.654Z,101467.13
2023-04-26T15:45:49.768Z,101467.53
2023-04-26T15:48:16.560Z,101463.16
2023-04-26T15:50:43.050Z,101458.38
2023-04-26T15:53:09.851Z,101466.72
2023-04-26T15:55:36.423Z,101461.94
2023-04-26T15:58:02.958Z,101470.66
2023-04-26T16:00:30.479Z,101478.66
2023-04-26T16:02:57.357Z,101472.34
2023-04-26T16:05:24.178Z,101473.56
2023-04-26T16:07:50.879Z,101469.59
2023-04-26T16:10:17.384Z,101468.03
2023-04-26T16:12:44.771Z,101468.03
2023-04-26T16:15:11.577Z,101461.69
2023-04-26T16:17:39.216Z,101466.84
2023-04-26T16:20:07.896Z,101466.84
2023-04-26T16:22:35.384Z,101470.03
2023-04-26T16:25:04.045Z,101473.22
2023-04-26T16:27:30.613Z,101454.94
2023-04-26T16:29:57.121Z,101454.91
2023-04-26T16:32:23.819Z,101460.47
2023-04-26T16:34:51.553Z,101454.13
2023-04-26T16:37:18.126Z,101460.09
2023-04-26T16:39:45.057Z,101466.03
2023-04-26T16:42:11.771Z,101461.66
2023-04-26T16:44:38.393Z,101464.06
2023-04-26T16:47:04.837Z,101466.81
2023-04-26T16:49:31.270Z,101459.63
2023-04-26T16:51:59.023Z,101461.22
2023-04-26T16:54:26.215Z,101455.69
2023-04-26T16:56:52.774Z,101465.19
2023-04-26T16:59:19.457Z,101467.59
2023-04-26T17:01:47.241Z,101467.59
2023-04-26T17:04:14.269Z,101469.56
2023-04-26T17:06:41.158Z,101464.00
2023-04-26T17:09:08.644Z,101465.19
2023-04-26T17:11:37.242Z,101468.34
2023-04-26T17:14:04.501Z,101468.72
2023-04-26T17:16:31.678Z,101469.94
2023-04-26T17:18:58.498Z,101470.34
2023-04-26T17:21:25.302Z,101463.94
2023-04-26T17:23:51.975Z,101472.31
2023-04-26T17:26:18.429Z,101479.03
2023-04-26T17:28:44.852Z,101470.69
2023-04-26T17:31:11.367Z,101473.06
2023-04-26T17:33:37.884Z,101477.78
2023-04-26T17:36:04.914Z,101474.63
2023-04-26T17:38:31.379Z,101476.25
2023-04-26T17:40:59.218Z,101469.06
2023-04-26T17:43:25.740Z,101470.66
2023-04-26T17:45:52.227Z,101466.31
2023-04-26T17:48:18.795Z,101469.09
2023-04-26T17:50:46.175Z,101469.06
2023-04-26T17:53:12.847Z,101454.75
2023-04-26T17:55:39.266Z,101469.81
2023-04-26T17:58:05.769Z,101462.66
2023-04-26T18:00:32.214Z,101478.13
2023-04-26T18:02:58.960Z,101465.78
2023-04-26T18:05:25.793Z,101467.38
2023-04-26T18:07:52.282Z,101470.91
2023-04-26T18:10:18.869Z,101478.06
2023-04-26T18:12:45.335Z,101476.84
2023-04-26T18:15:13.568Z,101488.72
2023-04-26T18:17:41.168Z,101489.09
2023-04-26T18:20:08.384Z,101493.81
2023-04-26T18:22:34.900Z,101496.16
2023-04-26T18:25:01.345Z,101500.88
2023-04-26T18:27:27.791Z,101490.53
2023-04-26T18:29:54.231Z,101500.44
2023-04-26T18:32:20.683Z,101500.41
2023-04-26T18:34:47.974Z,101506.72
2023-04-26T18:37:14.489Z,101511.44
2023-04-26T18:39:41.239Z,101500.31
2023-04-26T18:42:07.747Z,101501.44
2023-04-26T18:44:34.171Z,101518.81
2023-04-26T18:47:00.653Z,101506.91
2023-04-26T18:49:27.350Z,101512.84
2023-04-26T18:51:54.103Z,101513.22
2023-04-26T18:54:20.551Z,101510.78
2023-04-26T18:56:47.003Z,101507.63
2023-04-26T18:59:13.483Z,101519.06
2023-04-26T19:01:40.124Z,101514.28
2023-04-26T19:04:08.313Z,101516.63
2023-04-26T19:06:34.970Z,101516.56
2023-04-26T19:09:01.463Z,101509.78
2023-04-26T19:11:27.978Z,101514.88
2023-04-26T19:13:54.457Z,101519.16
2023-04-26T19:16:21.133Z,101527.38
2023-04-26T19:18:49.082Z,101513.03
2023-04-26T19:21:16.150Z,101521.34
2023-04-26T19:23:44.300Z,101524.09
2023-04-26T19:26:14.531Z,101529.22
2023-04-26T19:28:41.580Z,101527.13
2023-04-26T19:31:08.178Z,101535.78
2023-04-26T19:33:36.881Z,101533.75
2023-04-26T19:36:03.496Z,101532.91
2023-04-26T19:38:29.955Z,101535.63
2023-04-26T19:40:56.370Z,101538.38
2023-04-26T19:43:22.817Z,101534.78
2023-04-26T19:45:49.274Z,101532.41
2023-04-26T19:48:15.866Z,101544.22
2023-04-26T19:50:44.355Z,101532.38
2023-04-26T19:53:13.011Z,101539.88
2023-04-26T19:55:40.971Z,101539.44
2023-04-26T19:58:08.307Z,101536.66
2023-04-26T20:00:39.072Z,101550.88
2023-04-26T20:03:06.106Z,101537.38
2023-04-26T20:05:33.620Z,101541.75
2023-04-26T20:08:00.482Z,101550.00
2023-04-26T20:10:30.329Z,101553.09
2023-04-26T20:12:56.885Z,101561.38
2023-04-26T20:15:24.232Z,101565.34
2023-04-26T20:17:50.839Z,101559.38
2023-04-26T20:20:17.524Z,101565.25
2023-04-26T20:22:44.320Z,101560.47
2023-04-26T20:25:11.054Z,101570.75
2023-04-26T20:27:37.728Z,101569.13
2023-04-26T20:30:04.765Z,101561.06
2023-04-26T20:32:31.497Z,101557.50
2023-04-26T20:34:58.217Z,101567.41
2023-04-26T20:37:24.657Z,101569.28
2023-04-26T20:39:51.356Z,101569.63
2023-04-26T20:42:17.900Z,101572.31
2023-04-26T20:44:44.445Z,101571.91
2023-04-26T20:47:11.023Z,101574.31
2023-04-26T20:49:37.517Z,101567.28
2023-04-26T20:52:04.260Z,101564.53
2023-04-26T20:54:31.563Z,101566.06
2023-04-26T20:56:57.997Z,101563.66
2023-04-26T20:59:25.254Z,101564.44
2023-04-26T21:01:53.549Z,101563.25
2023-04-26T21:04:20.506Z,101568.78
2023-04-26T21:06:47.314Z,101559.16
2023-04-26T21:09:13.759Z,101569.88
2023-04-26T21:11:40.476Z,101563.16
2023-04-26T21:14:07.176Z,101565.47
2023-04-26T21:16:33.628Z,101565.44
2023-04-26T21:19:00.093Z,101563.03
2023-04-26T21:21:28.308Z,101566.16
2023-04-26T21:23:54.983Z,101559.72
2023-04-26T21:26:21.468Z,101568.81
2023-04-26T21:28:47.906Z,101572.31
2023-04-26T21:31:14.485Z,101570.66
2023-04-26T21:33:41.101Z,101568.53
2023-04-26T21:36:07.736Z,101576.00
2023-04-26T21:38:34.826Z,101574.78
2023-04-26T21:41:01.345Z,101566.75
2023-04-26T21:43:27.864Z,101577.00
2023-04-26T21:45:58.347Z,101580.94
2023-04-26T21:48:26.224Z,101575.72
2023-04-26T21:50:53.029Z,101574.91
2023-04-26T21:53:19.591Z,101581.97
2023-04-26T21:55:53.830Z,101580.00
2023-04-26T21:58:21.405Z,101573.34
2023-04-26T22:00:48.530Z,101581.19
2023-04-26T22:03:15.370Z,101574.06
2023-04-26T22:05:42.000Z,101577.56
2023-04-26T22:08:08.538Z,101577.19
2023-04-26T22:10:35.559Z,101583.09
2023-04-26T22:13:02.154Z,101584.97
2023-04-26T22:15:28.907Z,101579.09
2023-04-26T22:17:55.624Z,101582.59
2023-04-26T22:20:22.582Z,101590.06
2023-04-26T22:22:49.134Z,101595.91
2023-04-26T22:25:15.666Z,101594.69
2023-04-26T22:27:42.180Z,101591.41
2023-04-26T22:30:23.115Z,101592.56
2023-04-26T22:32:55.520Z,101589.66
2023-04-26T22:35:25.643Z,101593.16
2023-04-26T22:37:52.202Z,101590.34
2023-04-26T22:40:18.932Z,101589.84
2023-04-26T22:42:45.469Z,101592.44
2023-04-26T22:45:12.982Z,101586.78
2023-04-26T22:47:40.254Z,101597.31
2023-04-26T22:50:07.820Z,101591.66
2023-04-26T22:52:35.305Z,101595.81
2023-04-26T22:55:01.854Z,101594.78
2023-04-26T22:57:29.558Z,101595.84
2023-04-26T22:59:56.215Z,101602.66
2023-04-26T23:02:22.707Z,101610.44
2023-04-26T23:04:49.344Z,101605.47
2023-04-26T23:07:16.442Z,101608.88
2023-04-26T23:09:43.090Z,101611.13
2023-04-26T23:12:09.785Z,101605.09
2023-04-26T23:14:36.255Z,101604.03
2023-04-26T23:17:03.007Z,101613.81
2023-04-26T23:19:29.538Z,101599.78
2023-04-26T23:21:56.335Z,101614.63
2023-04-26T23:24:22.819Z,101615.22
2023-04-26T23:26:49.274Z,101611.88
2023-04-26T23:29:15.716Z,101607.78
2023-04-26T23:31:42.499Z,101625.09
2023-04-26T23:34:08.999Z,101617.91
2023-04-26T23:36:35.624Z,101618.50
2023-04-26T23:39:02.131Z,101614.78
2023-04-26T23:41:28.592Z,101612.91
2023-04-26T23:43:55.058Z,101615.47
2023-04-26T23:46:21.556Z,101620.84
2023-04-26T23:48:48.046Z,101621.91
2023-04-26T23:51:14.477Z,101622.97
2023-04-26T23:53:40.915Z,101618.53
2023-04-26T23:56:07.687Z,101630.22
2023-04-26T23:58:34.228Z,101625.78
